الصفحة الرئيسية
METAR-TAF:

METAR-TAF

مطار :

Clayton, نيومكسيكو, الولايات المتحدة

دائرة عرض: 36-26-54N, خط طول: 103-09-11W, ارتفاع: 1513 متر

مراقبة الطقس الحالي

تاريخ ووقت الإصدار 17 دقيقة قبل الساعة 19:55UTC
ريح 20 عقدة من الجنوب
درجة الحرارة 14°درجة مئوية
الرطوبة 26%
ضغط 1019 hPa
الرؤية: 16.1 كم
سماء صافية

METAR: KCAO 171955Z AUTO 19020KT 10SM CLR 14/M05 A3009 RMK AO2 PK WND 20028/1916 SLP173 T01441050

زمن: 13:12 (20:12 UTC)


TAF: مفقودة

أرصاد الطقس والتوقعات من أكثر من 4000 مطار (تقارير الطقس للمطار METAR والتنبؤ بالطقس بالمطارTAF).

المحطات المتاحة هي النقط الصفراء والحمراء على الخريطة.

حرك المؤشر فوق النقطة لمعرفة اسم المحطة.

ثم انقر لمعرفة أرصاد وتوقعات الطقس.

لتغيير الخارطة: اضغط على الأزرار الخضراء مع رمز الصليب الأسود للتكبير. على الزر الأخضر مع شرطة للتصغير، أو على الأسهم الخضراء للخرائط المجاورة.


METAR-TAF: